createdAt,value
2018-01-05T00:01:28.130Z,70.28
2018-01-05T00:03:55.764Z,69.88
2018-01-05T00:06:24.145Z,70.86
2018-01-05T00:08:51.713Z,69.11
2018-01-05T00:11:19.580Z,70.26
2018-01-05T00:13:47.133Z,68.83
2018-01-05T00:16:14.658Z,69.17
2018-01-05T00:18:42.148Z,68.38
2018-01-05T00:21:09.701Z,68.99
2018-01-05T00:23:37.694Z,69.10
2018-01-05T00:26:05.236Z,69.30
2018-01-05T00:28:32.865Z,69.72
2018-01-05T00:31:00.886Z,68.83
2018-01-05T00:33:30.692Z,70.47
2018-01-05T00:35:59.422Z,72.53
2018-01-05T00:38:27.043Z,72.90
2018-01-05T00:40:56.561Z,73.77
2018-01-05T00:43:25.416Z,75.13
2018-01-05T00:45:53.611Z,73.92
2018-01-05T00:48:21.290Z,73.18
2018-01-05T00:50:48.836Z,73.00
2018-01-05T00:53:17.051Z,72.62
2018-01-05T00:55:44.600Z,72.50
2018-01-05T00:58:12.857Z,72.51
2018-01-05T01:00:42.872Z,72.35
2018-01-05T01:03:10.503Z,73.01
2018-01-05T01:05:38.369Z,73.24
2018-01-05T01:08:06.743Z,73.03
2018-01-05T01:10:34.885Z,73.13
2018-01-05T01:13:02.462Z,73.29
2018-01-05T01:15:30.857Z,73.25
2018-01-05T01:17:59.636Z,72.86
2018-01-05T01:20:28.288Z,72.69
2018-01-05T01:23:01.027Z,72.10
2018-01-05T01:25:28.872Z,72.58
2018-01-05T01:27:57.269Z,72.26
2018-01-05T01:30:24.843Z,73.10
2018-01-05T01:32:52.424Z,71.56
2018-01-05T01:35:20.427Z,71.88
2018-01-05T01:37:48.062Z,71.73
2018-01-05T01:40:15.692Z,71.45
2018-01-05T01:42:43.265Z,71.49
2018-01-05T01:45:10.824Z,71.87
2018-01-05T01:47:40.452Z,72.84
2018-01-05T01:50:08.138Z,72.77
2018-01-05T01:52:36.161Z,71.47
2018-01-05T01:55:03.699Z,71.35
2018-01-05T01:57:32.833Z,72.34
2018-01-05T02:00:01.013Z,71.09
2018-01-05T02:02:32.664Z,71.19
2018-01-05T02:05:03.409Z,71.73
2018-01-05T02:07:33.244Z,71.69
2018-01-05T02:10:04.118Z,70.54
2018-01-05T02:12:34.010Z,71.06
2018-01-05T02:15:01.688Z,70.63
2018-01-05T02:17:30.243Z,70.75
2018-01-05T02:19:58.941Z,71.39
2018-01-05T02:22:26.818Z,71.59
2018-01-05T02:24:54.360Z,71.28
2018-01-05T02:27:23.138Z,71.16
2018-01-05T02:29:50.629Z,70.42
2018-01-05T02:32:18.387Z,70.69
2018-01-05T02:34:45.914Z,71.71
2018-01-05T02:37:14.343Z,71.42
2018-01-05T02:39:42.464Z,71.18
2018-01-05T02:42:10.038Z,72.03
2018-01-05T02:44:38.559Z,72.04
2018-01-05T02:47:06.672Z,71.73
2018-01-05T02:49:34.267Z,71.41
2018-01-05T02:52:02.269Z,71.98
2018-01-05T02:54:31.848Z,72.27
2018-01-05T02:56:59.699Z,71.94
2018-01-05T02:59:27.265Z,71.97
2018-01-05T03:01:54.802Z,73.07
2018-01-05T03:04:23.307Z,72.22
2018-01-05T03:06:51.110Z,72.40
2018-01-05T03:09:18.649Z,72.10
2018-01-05T03:11:46.255Z,72.41
2018-01-05T03:14:13.801Z,71.95
2018-01-05T03:16:42.241Z,71.98
2018-01-05T03:19:11.818Z,72.50
2018-01-05T03:21:39.413Z,72.90
2018-01-05T03:24:07.065Z,72.62
2018-01-05T03:26:35.288Z,72.99
2018-01-05T03:29:03.748Z,72.95
2018-01-05T03:31:32.688Z,73.73
2018-01-05T03:34:00.245Z,73.50
2018-01-05T03:36:28.134Z,73.53
2018-01-05T03:38:56.340Z,73.58
2018-01-05T03:41:24.146Z,73.46
2018-01-05T03:43:54.224Z,74.12
2018-01-05T03:46:21.806Z,74.07
2018-01-05T03:48:50.283Z,74.28
2018-01-05T03:51:17.785Z,74.04
2018-01-05T03:53:46.060Z,74.23
2018-01-05T03:56:13.620Z,73.73
2018-01-05T03:58:41.165Z,73.99
2018-01-05T04:01:08.690Z,74.14
2018-01-05T04:03:36.912Z,73.77
2018-01-05T04:06:05.344Z,73.52
2018-01-05T04:08:33.760Z,73.47
2018-01-05T04:11:02.701Z,73.52
2018-01-05T04:13:35.062Z,73.35
2018-01-05T04:16:07.334Z,73.49
2018-01-05T04:18:37.539Z,73.26
2018-01-05T04:21:06.945Z,73.25
2018-01-05T04:23:35.487Z,73.37
2018-01-05T04:26:04.211Z,72.98
2018-01-05T04:28:31.735Z,73.11
2018-01-05T04:30:59.599Z,73.51
2018-01-05T04:33:27.432Z,73.51
2018-01-05T04:35:55.409Z,73.45
2018-01-05T04:38:23.128Z,73.30
2018-01-05T04:40:51.661Z,74.02
2018-01-05T04:43:21.166Z,74.11
2018-01-05T04:45:48.782Z,74.05
2018-01-05T04:48:17.305Z,74.08
2018-01-05T04:50:44.841Z,74.39
2018-01-05T04:53:12.970Z,74.45
2018-01-05T04:55:42.585Z,74.29
2018-01-05T04:58:11.025Z,74.17
2018-01-05T05:00:38.578Z,73.75
2018-01-05T05:03:07.815Z,73.74
2018-01-05T05:05:36.140Z,74.00
2018-01-05T05:08:03.760Z,74.22
2018-01-05T05:10:32.595Z,73.95
2018-01-05T05:13:01.734Z,73.92
2018-01-05T05:15:29.591Z,73.81
2018-01-05T05:17:57.164Z,73.33
2018-01-05T05:20:24.673Z,73.00
2018-01-05T05:22:53.432Z,72.72
2018-01-05T05:25:21.198Z,72.32
2018-01-05T05:27:48.829Z,72.83
2018-01-05T05:30:17.200Z,72.29
2018-01-05T05:32:45.016Z,72.68
2018-01-05T05:35:12.871Z,72.91
2018-01-05T05:37:41.101Z,72.26
2018-01-05T05:40:08.811Z,72.23
2018-01-05T05:42:38.599Z,72.32
2018-01-05T05:45:08.963Z,72.22
2018-01-05T05:47:39.819Z,72.51
2018-01-05T05:50:11.700Z,72.37
2018-01-05T05:52:39.196Z,72.53
2018-01-05T05:55:08.295Z,72.79
2018-01-05T05:57:37.617Z,72.75
2018-01-05T06:00:05.137Z,72.81
2018-01-05T06:02:33.776Z,72.57
2018-01-05T06:05:01.253Z,72.45
2018-01-05T06:07:28.842Z,72.65
2018-01-05T06:09:56.676Z,72.73
2018-01-05T06:12:26.212Z,72.60
2018-01-05T06:14:55.520Z,72.71
2018-01-05T06:17:23.854Z,72.70
2018-01-05T06:19:55.018Z,72.74
2018-01-05T06:22:22.753Z,72.59
2018-01-05T06:24:51.950Z,72.50
2018-01-05T06:27:19.431Z,72.56
2018-01-05T06:29:46.886Z,72.81
2018-01-05T06:32:14.363Z,72.76
2018-01-05T06:34:41.889Z,72.45
2018-01-05T06:37:09.691Z,72.10
2018-01-05T06:39:37.209Z,71.69
2018-01-05T06:42:04.719Z,71.58
2018-01-05T06:44:32.279Z,71.81
2018-01-05T06:46:59.768Z,71.67
2018-01-05T06:49:27.240Z,71.85
2018-01-05T06:51:54.727Z,71.86
2018-01-05T06:54:22.261Z,71.34
2018-01-05T06:56:49.816Z,70.12
2018-01-05T06:59:17.315Z,70.33
2018-01-05T07:01:44.925Z,69.89
2018-01-05T07:04:13.521Z,70.17
2018-01-05T07:06:42.034Z,70.62
2018-01-05T07:09:09.992Z,69.59
2018-01-05T07:11:37.532Z,69.76
2018-01-05T07:14:05.126Z,69.86
2018-01-05T07:16:32.676Z,69.58
2018-01-05T07:19:00.225Z,69.27
2018-01-05T07:21:30.196Z,68.76
2018-01-05T07:23:58.120Z,68.04
2018-01-05T07:26:25.652Z,68.34
2018-01-05T07:28:53.568Z,67.54
2018-01-05T07:31:23.669Z,68.00
2018-01-05T07:33:51.281Z,67.39
2018-01-05T07:36:18.842Z,66.67
2018-01-05T07:38:46.416Z,66.64
2018-01-05T07:41:13.940Z,66.45
2018-01-05T07:43:41.890Z,65.96
2018-01-05T07:46:17.769Z,66.87
2018-01-05T07:48:49.503Z,67.12
2018-01-05T07:54:21.955Z,67.41
2018-01-05T07:56:50.084Z,67.61
2018-01-05T07:59:21.045Z,67.08
2018-01-05T08:01:48.880Z,66.49
2018-01-05T08:04:16.670Z,66.85
2018-01-05T08:06:44.241Z,66.11
2018-01-05T08:09:12.556Z,63.98
2018-01-05T08:11:41.055Z,63.25
2018-01-05T08:14:10.105Z,61.58
2018-01-05T08:16:37.637Z,61.35
2018-01-05T08:19:05.291Z,59.28
2018-01-05T08:21:50.081Z,58.59
2018-01-05T08:24:17.646Z,59.26
2018-01-05T08:26:45.139Z,60.86
2018-01-05T08:29:13.516Z,59.95
2018-01-05T08:31:53.576Z,59.99
2018-01-05T08:34:21.072Z,60.58
2018-01-05T08:36:48.714Z,60.22
2018-01-05T08:39:16.286Z,60.31
2018-01-05T08:41:45.260Z,61.33
2018-01-05T08:44:13.520Z,62.24
2018-01-05T08:46:44.643Z,62.16
2018-01-05T08:49:12.230Z,63.00
2018-01-05T08:51:39.825Z,62.89
2018-01-05T08:54:07.409Z,62.96
2018-01-05T08:56:35.068Z,63.83
2018-01-05T08:59:02.704Z,63.84
2018-01-05T09:01:30.218Z,63.92
2018-01-05T09:03:57.774Z,64.26
2018-01-05T09:06:25.364Z,63.79
2018-01-05T09:08:52.873Z,64.07
2018-01-05T09:11:20.488Z,64.39
2018-01-05T09:13:48.079Z,64.88
2018-01-05T09:16:16.527Z,65.24
2018-01-05T09:18:44.378Z,65.57
2018-01-05T09:21:11.934Z,65.77
2018-01-05T09:23:39.455Z,65.75
2018-01-05T09:26:07.016Z,66.32
2018-01-05T09:28:34.472Z,66.13
2018-01-05T09:31:01.993Z,66.71
2018-01-05T09:33:29.574Z,67.05
2018-01-05T09:35:57.083Z,67.42
2018-01-05T09:38:24.613Z,66.68
2018-01-05T09:40:52.060Z,67.06
2018-01-05T09:43:36.322Z,66.73
2018-01-05T09:46:03.879Z,66.71
2018-01-05T09:48:33.465Z,66.69
2018-01-05T09:51:02.612Z,66.30
2018-01-05T09:53:30.168Z,66.73
2018-01-05T09:56:03.023Z,66.31
2018-01-05T09:58:30.846Z,66.55
2018-01-05T10:05:18.196Z,66.28
2018-01-05T10:07:46.451Z,66.84
2018-01-05T10:10:16.629Z,66.79
2018-01-05T10:12:56.967Z,66.61
2018-01-05T10:21:03.396Z,66.44
2018-01-05T10:23:34.188Z,66.27
2018-01-05T10:26:40.677Z,65.95
2018-01-05T10:32:31.724Z,65.31
2018-01-05T10:48:05.264Z,64.80
2018-01-05T10:56:36.455Z,63.95
2018-01-05T10:59:06.959Z,63.89
2018-01-05T11:13:15.241Z,62.63
2018-01-05T11:28:05.863Z,61.93
2018-01-05T11:33:37.556Z,62.23
2018-01-05T11:36:08.431Z,61.56
2018-01-05T12:45:16.025Z,62.90
2018-01-05T12:47:43.486Z,63.13
2018-01-05T12:50:10.955Z,63.13
2018-01-05T12:52:38.900Z,63.73
2018-01-05T12:55:06.380Z,63.21
2018-01-05T12:57:34.256Z,62.98
2018-01-05T13:00:01.742Z,62.82
2018-01-05T13:02:53.118Z,63.68
2018-01-05T13:08:04.342Z,64.82
2018-01-05T13:10:32.009Z,65.64
2018-01-05T13:13:07.956Z,65.86
2018-01-05T13:24:46.645Z,66.14
2018-01-05T14:16:44.621Z,73.01
2018-01-05T14:19:12.183Z,71.99
2018-01-05T14:41:42.694Z,70.38
2018-01-05T14:44:10.226Z,70.06
2018-01-05T14:46:46.202Z,70.02
2018-01-05T15:07:24.705Z,71.33
2018-01-05T15:24:46.076Z,78.36
2018-01-05T15:33:09.606Z,81.69
2018-01-05T15:35:37.139Z,81.78
2018-01-05T15:38:06.543Z,80.56
2018-01-05T15:40:38.558Z,79.45
2018-01-05T15:43:06.151Z,78.83
2018-01-05T15:45:34.769Z,78.27
2018-01-05T15:48:05.989Z,78.67
2018-01-05T15:50:33.485Z,78.92
2018-01-05T15:55:54.422Z,79.04
2018-01-05T15:58:23.220Z,79.29
2018-01-05T16:00:51.602Z,80.66
2018-01-05T16:06:12.397Z,81.00
2018-01-05T16:08:40.213Z,79.21
2018-01-05T16:11:07.929Z,80.36
2018-01-05T16:13:35.415Z,80.95
2018-01-05T16:16:03.104Z,80.70
2018-01-05T16:18:31.114Z,80.91
2018-01-05T16:20:58.712Z,80.06
2018-01-05T16:23:28.092Z,80.75
2018-01-05T16:25:56.447Z,80.22
2018-01-05T16:28:27.404Z,80.42
2018-01-05T16:30:55.894Z,80.70
2018-01-05T16:33:23.411Z,79.51
2018-01-05T16:35:51.865Z,79.45
2018-01-05T16:38:19.609Z,78.89
2018-01-05T16:40:47.508Z,78.89
2018-01-05T16:43:15.079Z,79.03
2018-01-05T16:45:42.589Z,77.49
2018-01-05T16:48:10.094Z,77.18
2018-01-05T16:50:37.717Z,77.00
2018-01-05T16:53:05.214Z,77.02
2018-01-05T16:55:33.354Z,76.96
2018-01-05T16:58:04.109Z,75.68
2018-01-05T17:35:29.564Z,73.92
2018-01-05T17:37:57.788Z,74.26
2018-01-05T17:40:25.764Z,73.76
2018-01-05T17:42:53.287Z,73.91
2018-01-05T17:45:20.764Z,73.77
2018-01-05T17:47:48.516Z,73.65
2018-01-05T17:50:16.024Z,74.10
2018-01-05T17:52:43.512Z,74.53
2018-01-05T17:55:11.046Z,74.87
2018-01-05T17:57:38.548Z,75.15
2018-01-05T18:00:06.043Z,75.86
2018-01-05T18:02:33.506Z,75.77
2018-01-05T18:05:01.292Z,76.42
2018-01-05T18:07:28.987Z,76.00
2018-01-05T18:09:56.557Z,75.57
2018-01-05T18:12:24.060Z,76.03
2018-01-05T18:14:52.223Z,75.89
2018-01-05T18:17:19.716Z,76.35
2018-01-05T18:19:47.195Z,76.50
2018-01-05T18:22:14.680Z,76.28
2018-01-05T18:24:46.273Z,76.35
2018-01-05T19:25:35.843Z,82.41
2018-01-05T19:28:04.988Z,82.53
2018-01-05T19:30:32.508Z,82.96
2018-01-05T19:33:00.707Z,82.72
2018-01-05T19:35:28.256Z,81.93
2018-01-05T19:37:55.755Z,81.69
2018-01-05T19:40:23.377Z,81.18
2018-01-05T19:42:50.975Z,80.56
2018-01-05T19:45:20.363Z,81.11
2018-01-05T19:47:47.851Z,81.07
2018-01-05T19:50:16.728Z,80.65
2018-01-05T19:52:47.425Z,80.79
2018-01-05T19:55:15.356Z,80.76
2018-01-05T19:57:44.852Z,80.48
2018-01-05T20:00:25.901Z,80.12
2018-01-05T20:02:55.488Z,79.65
2018-01-05T20:05:23.039Z,80.18
2018-01-05T20:07:50.564Z,80.99
2018-01-05T20:10:18.365Z,80.96
2018-01-05T20:12:51.479Z,81.10
2018-01-05T20:15:19.189Z,80.32
2018-01-05T20:17:46.710Z,79.93
2018-01-05T20:20:15.902Z,79.77
2018-01-05T20:22:43.398Z,79.49
2018-01-05T20:25:10.999Z,79.65
2018-01-05T20:27:39.736Z,79.52
2018-01-05T20:30:08.734Z,79.38
2018-01-05T20:32:37.569Z,79.46
2018-01-05T20:37:44.038Z,79.33
2018-01-05T21:11:58.739Z,79.37
2018-01-05T21:14:26.838Z,79.28
2018-01-05T21:16:56.272Z,78.94
2018-01-05T21:19:23.801Z,78.75
2018-01-05T21:21:53.169Z,79.27
2018-01-05T21:24:22.247Z,78.93
2018-01-05T21:26:52.076Z,78.49
2018-01-05T21:29:22.934Z,77.99
2018-01-05T21:31:52.796Z,78.58
2018-01-05T21:34:39.806Z,78.43
2018-01-05T21:37:08.523Z,78.50
2018-01-05T21:39:36.035Z,78.30
2018-01-05T21:42:04.601Z,78.31
2018-01-05T21:44:32.263Z,78.39
2018-01-05T21:46:59.751Z,78.31
2018-01-05T21:49:28.695Z,78.41
2018-01-05T21:51:56.475Z,78.23
2018-01-05T21:54:23.963Z,78.20
2018-01-05T22:02:42.357Z,78.48
2018-01-05T22:05:09.807Z,78.88
2018-01-05T22:07:37.352Z,78.42
2018-01-05T22:10:04.844Z,78.69
2018-01-05T22:12:32.363Z,78.24
2018-01-05T22:15:01.399Z,77.78
2018-01-05T22:17:28.860Z,77.78
2018-01-05T22:19:56.485Z,77.95
2018-01-05T22:22:24.109Z,77.91
2018-01-05T22:24:51.575Z,76.84
2018-01-05T22:27:23.052Z,77.08
2018-01-05T22:29:51.098Z,77.91
2018-01-05T22:32:19.287Z,77.33
2018-01-05T22:34:46.929Z,77.33
2018-01-05T22:37:22.258Z,76.78
2018-01-05T22:39:52.249Z,77.33
2018-01-05T22:42:20.458Z,77.34
2018-01-05T22:44:48.506Z,76.93
2018-01-05T22:47:16.060Z,76.89
2018-01-05T22:49:54.089Z,76.72
2018-01-05T22:52:22.537Z,77.15
2018-01-05T22:54:50.565Z,76.74
2018-01-05T22:57:18.242Z,76.83
2018-01-05T23:05:07.872Z,76.14
2018-01-05T23:07:35.638Z,76.07
2018-01-05T23:10:05.005Z,76.30
2018-01-05T23:36:44.337Z,78.31
2018-01-05T23:39:12.119Z,78.47
2018-01-05T23:41:44.570Z,79.55
2018-01-05T23:47:35.028Z,78.02
2018-01-05T23:50:04.258Z,77.63
2018-01-05T23:52:36.077Z,77.22
2018-01-05T23:55:10.984Z,77.03
